Eastman, Wisconsin
Current Conditions -  °F | °C
As of 6:15 AM on Sunday 25 Jan 2015 (Local Time) from KPDC Reporting Station
Light Snow Light Snow  
Wind Chill: 22°   Ceiling: 1300
Heat Index: 31°   Visibility: 2.5mi
Dew Point: 27°   Wind: 12mph
Humidity: 83%   Direction: 30°NNE
Pressure: 29.77"   Gusts: 22mph
Location:  43.17°N, 91.02°W
Report Text: KPDC 251215Z AUTO 03010G19KT 360V070 2 1/2SM -SN BKN013 BKN018 OVC022 00/M03 A2977 RMK AO2 T10051030
Loading
Personal Weather Stations






























Interactive Weather Map New forecast layout! Learn more

10-Day Weather Forecast

Advertisements
Track Severe Weather on mobile